createdAt,value
2017-08-09T00:00:06.271Z,1007.34
2017-08-09T00:01:15.280Z,1007.32
2017-08-09T00:02:24.309Z,1007.3
2017-08-09T00:03:33.482Z,1007.29
2017-08-09T00:04:42.654Z,1007.26
2017-08-09T00:05:51.945Z,1007.29
2017-08-09T00:07:01.068Z,1007.32
2017-08-09T00:08:10.555Z,1007.38
2017-08-09T00:09:19.521Z,1007.45
2017-08-09T00:10:28.497Z,1007.47
2017-08-09T00:11:37.460Z,1007.44
2017-08-09T00:12:46.430Z,1007.49
2017-08-09T00:13:55.391Z,1007.45
2017-08-09T00:15:04.357Z,1007.38
2017-08-09T00:16:13.314Z,1007.34
2017-08-09T00:17:22.280Z,1007.3
2017-08-09T00:18:31.566Z,1007.28
2017-08-09T00:19:40.902Z,1007.21
2017-08-09T00:20:49.870Z,1007.17
2017-08-09T00:21:58.838Z,1007.15
2017-08-09T00:23:07.798Z,1007.18
2017-08-09T00:24:16.779Z,1007.17
2017-08-09T00:25:26.162Z,1007.2
2017-08-09T00:26:35.124Z,1007.12
2017-08-09T00:27:44.084Z,1007.15
2017-08-09T00:28:53.041Z,1007.08
2017-08-09T00:30:02.003Z,1007.07
2017-08-09T00:31:10.976Z,1007.11
2017-08-09T00:32:19.942Z,1007.16
2017-08-09T00:33:28.897Z,1007.23
2017-08-09T00:34:37.864Z,1007.3
2017-08-09T00:35:46.825Z,1007.28
2017-08-09T00:36:55.783Z,1007.3
2017-08-09T00:38:04.741Z,1007.36
2017-08-09T00:39:13.702Z,1007.39
2017-08-09T00:40:22.665Z,1007.4
2017-08-09T00:41:31.628Z,1007.4
2017-08-09T00:42:40.580Z,1007.31
2017-08-09T00:43:49.863Z,1007.31
2017-08-09T00:44:58.818Z,1007.31
2017-08-09T00:46:07.783Z,1007.27
2017-08-09T00:47:16.739Z,1007.28
2017-08-09T00:48:25.697Z,1007.3
2017-08-09T00:49:34.656Z,1007.31
2017-08-09T00:50:43.627Z,1007.26
2017-08-09T00:51:52.915Z,1007.22
2017-08-09T00:53:01.880Z,1007.23
2017-08-09T00:54:10.848Z,1007.19
2017-08-09T00:55:19.811Z,1007.23
2017-08-09T00:56:28.768Z,1007.26
2017-08-09T00:57:37.720Z,1007.24
2017-08-09T00:58:46.680Z,1007.25
2017-08-09T00:59:55.638Z,1007.25
2017-08-09T01:01:04.595Z,1007.22
2017-08-09T01:02:13.547Z,1007.28
2017-08-09T01:03:22.504Z,1007.3
2017-08-09T01:04:31.460Z,1007.25
2017-08-09T01:05:40.423Z,1007.31
2017-08-09T01:06:49.389Z,1007.32
2017-08-09T01:07:58.340Z,1007.35
2017-08-09T01:09:07.312Z,1007.4
2017-08-09T01:10:16.270Z,1007.46
2017-08-09T01:11:25.227Z,1007.41
2017-08-09T01:12:34.182Z,1007.43
2017-08-09T01:13:43.145Z,1007.35
2017-08-09T01:14:52.108Z,1007.36
2017-08-09T01:16:01.070Z,1007.36
2017-08-09T01:17:10.042Z,1007.36
2017-08-09T01:18:19.005Z,1007.39
2017-08-09T01:19:27.966Z,1007.44
2017-08-09T01:20:36.923Z,1007.47
2017-08-09T01:21:45.892Z,1007.45
2017-08-09T01:22:54.851Z,1007.49
2017-08-09T01:24:03.864Z,1007.52
2017-08-09T01:25:13.301Z,1007.54
2017-08-09T01:26:22.590Z,1007.56
2017-08-09T01:27:31.557Z,1007.59
2017-08-09T01:28:40.837Z,1007.67
2017-08-09T01:29:49.802Z,1007.68
2017-08-09T01:30:58.762Z,1007.66
2017-08-09T01:32:07.725Z,1007.73
2017-08-09T01:33:16.692Z,1007.74
2017-08-09T01:34:25.657Z,1007.78
2017-08-09T01:35:34.619Z,1007.81
2017-08-09T01:36:43.592Z,1007.81
2017-08-09T01:37:52.550Z,1007.84
2017-08-09T01:39:01.514Z,1007.9
2017-08-09T01:40:10.506Z,1007.9
2017-08-09T01:41:19.481Z,1007.9
2017-08-09T01:42:28.453Z,1007.96
2017-08-09T01:43:37.411Z,1007.93
2017-08-09T01:44:46.369Z,1007.96
2017-08-09T01:45:55.348Z,1007.89
2017-08-09T01:47:04.644Z,1007.93
2017-08-09T01:48:13.939Z,1007.91
2017-08-09T01:49:22.901Z,1007.91
2017-08-09T01:50:31.887Z,1007.91
2017-08-09T01:51:40.861Z,1007.93
2017-08-09T01:52:49.826Z,1007.91
2017-08-09T01:53:58.781Z,1008.02
2017-08-09T01:55:07.729Z,1008.07
2017-08-09T01:56:16.685Z,1008.05
2017-08-09T01:57:25.652Z,1008.03
2017-08-09T01:58:34.616Z,1008.04
2017-08-09T01:59:43.577Z,1008.01
2017-08-09T02:00:52.534Z,1008.04
2017-08-09T02:02:01.494Z,1008.09
2017-08-09T02:03:10.449Z,1008.11
2017-08-09T02:04:19.409Z,1008.1
2017-08-09T02:05:28.375Z,1008.1
2017-08-09T02:06:37.333Z,1008.1
2017-08-09T02:07:46.297Z,1008.12
2017-08-09T02:08:55.261Z,1008.11
2017-08-09T02:10:04.569Z,1008.06
2017-08-09T02:11:13.538Z,1008.09
2017-08-09T02:12:22.501Z,1008.15
2017-08-09T02:13:31.452Z,1008.08
2017-08-09T02:14:40.434Z,1008.07
2017-08-09T02:15:49.414Z,1008.03
2017-08-09T02:16:58.373Z,1008.08
2017-08-09T02:18:07.346Z,1008.1
2017-08-09T02:19:16.306Z,1008.08
2017-08-09T02:20:25.273Z,1008.09
2017-08-09T02:21:34.553Z,1008.11
2017-08-09T02:22:43.526Z,1008.21
2017-08-09T02:23:52.485Z,1008.21
2017-08-09T02:25:01.443Z,1008.22
2017-08-09T02:26:10.410Z,1008.22
2017-08-09T02:27:19.369Z,1008.22
2017-08-09T02:28:28.328Z,1008.16
2017-08-09T02:29:37.294Z,1008.12
2017-08-09T02:30:46.262Z,1008.17
2017-08-09T02:31:55.222Z,1008.17
2017-08-09T02:33:04.178Z,1008.09
2017-08-09T02:34:13.138Z,1008.08
2017-08-09T02:35:22.103Z,1008.1
2017-08-09T02:36:31.391Z,1008.03
2017-08-09T02:37:40.344Z,1007.97
2017-08-09T02:38:49.304Z,1007.98
2017-08-09T02:39:58.605Z,1008.03
2017-08-09T02:41:07.594Z,1008.02
2017-08-09T02:42:17.228Z,1007.99
2017-08-09T02:43:26.528Z,1007.97
2017-08-09T02:44:35.501Z,1007.98
2017-08-09T02:45:44.462Z,1007.97
2017-08-09T02:46:53.433Z,1007.96
2017-08-09T02:48:02.394Z,1007.98
2017-08-09T02:49:11.361Z,1008.01
2017-08-09T02:50:20.318Z,1008.05
2017-08-09T02:51:29.282Z,1008.05
2017-08-09T02:52:38.245Z,1008.06
2017-08-09T02:53:47.206Z,1008.12
2017-08-09T02:54:56.176Z,1008.14
2017-08-09T02:56:05.131Z,1008.19
2017-08-09T02:57:14.201Z,1008.17
2017-08-09T02:58:23.460Z,1008.21
2017-08-09T02:59:32.421Z,1008.18
2017-08-09T03:00:41.381Z,1008.15
2017-08-09T03:01:50.337Z,1008.15
2017-08-09T03:02:59.302Z,1008.23
2017-08-09T03:04:08.266Z,1008.29
2017-08-09T03:05:17.220Z,1008.31
2017-08-09T03:06:26.175Z,1008.3
2017-08-09T03:07:35.127Z,1008.22
2017-08-09T03:08:44.095Z,1008.15
2017-08-09T03:09:53.673Z,1008.03
2017-08-09T03:11:02.635Z,1007.94
2017-08-09T03:12:11.591Z,1007.89
2017-08-09T03:13:20.545Z,1007.9
2017-08-09T03:14:29.505Z,1007.97
2017-08-09T03:15:38.470Z,1008.02
2017-08-09T03:16:47.429Z,1008.1
2017-08-09T03:17:56.391Z,1008.14
2017-08-09T03:19:05.685Z,1008.19
2017-08-09T03:20:14.643Z,1008.21
2017-08-09T03:21:23.600Z,1008.25
2017-08-09T03:22:32.549Z,1008.24
2017-08-09T03:23:41.509Z,1008.29
2017-08-09T03:24:50.467Z,1008.26
2017-08-09T03:25:59.422Z,1008.26
2017-08-09T03:27:08.380Z,1008.32
2017-08-09T03:28:17.667Z,1008.36
2017-08-09T03:29:26.630Z,1008.44
2017-08-09T03:30:35.592Z,1008.45
2017-08-09T03:31:44.884Z,1008.47
2017-08-09T03:32:53.846Z,1008.52
2017-08-09T03:34:02.814Z,1008.48
2017-08-09T03:35:11.805Z,1008.45
2017-08-09T03:36:20.764Z,1008.41
2017-08-09T03:37:29.723Z,1008.35
2017-08-09T03:38:38.686Z,1008.3
2017-08-09T03:39:47.645Z,1008.21
2017-08-09T03:40:56.597Z,1008.18
2017-08-09T03:42:05.552Z,1008.19
2017-08-09T03:43:14.505Z,1008.34
2017-08-09T03:44:23.793Z,1008.32
2017-08-09T03:45:32.757Z,1008.4
2017-08-09T03:46:41.707Z,1008.44
2017-08-09T03:47:50.661Z,1008.48
2017-08-09T03:48:59.619Z,1008.54
2017-08-09T03:50:08.580Z,1008.58
2017-08-09T03:51:17.540Z,1008.59
2017-08-09T03:52:26.505Z,1008.59
2017-08-09T03:53:35.469Z,1008.55
2017-08-09T03:54:44.436Z,1008.47
2017-08-09T03:55:53.415Z,1008.5
2017-08-09T03:57:02.372Z,1008.5
2017-08-09T03:58:11.353Z,1008.46
2017-08-09T03:59:20.302Z,1008.39
2017-08-09T04:00:29.264Z,1008.4
2017-08-09T04:01:38.230Z,1008.43
2017-08-09T04:02:47.189Z,1008.48
2017-08-09T04:03:56.146Z,1008.52
2017-08-09T04:05:05.104Z,1008.52
2017-08-09T04:06:14.077Z,1008.57
2017-08-09T04:07:23.035Z,1008.47
2017-08-09T04:08:32.004Z,1008.46
2017-08-09T04:09:40.961Z,1008.43
2017-08-09T04:10:49.919Z,1008.43
2017-08-09T04:11:58.880Z,1008.48
2017-08-09T04:13:08.199Z,1008.54
2017-08-09T04:14:17.164Z,1008.57
2017-08-09T04:15:26.452Z,1008.65
2017-08-09T04:16:35.406Z,1008.63
2017-08-09T04:17:44.366Z,1008.66
2017-08-09T04:18:53.329Z,1008.72
2017-08-09T04:20:02.291Z,1008.79
2017-08-09T04:21:11.251Z,1008.76
2017-08-09T04:22:20.202Z,1008.78
2017-08-09T04:23:29.164Z,1008.73
2017-08-09T04:24:38.120Z,1008.72
2017-08-09T04:25:47.084Z,1008.75
2017-08-09T04:26:56.057Z,1008.82
2017-08-09T04:28:05.018Z,1008.82
2017-08-09T04:29:13.983Z,1008.88
2017-08-09T04:30:22.951Z,1008.93
2017-08-09T04:31:31.912Z,1008.93
2017-08-09T04:32:40.974Z,1008.9
2017-08-09T04:33:49.931Z,1008.89
2017-08-09T04:34:58.888Z,1008.91
2017-08-09T04:36:08.177Z,1009.01
2017-08-09T04:37:17.138Z,1009.01
2017-08-09T04:38:26.436Z,1009.04
2017-08-09T04:39:35.392Z,1009.06
2017-08-09T04:40:44.349Z,1009.1
2017-08-09T04:41:53.313Z,1009.05
2017-08-09T04:43:02.268Z,1009.06
2017-08-09T04:44:11.250Z,1009.03
2017-08-09T04:45:20.210Z,1009
2017-08-09T04:46:29.172Z,1009.08
2017-08-09T04:47:38.120Z,1009.05
2017-08-09T04:48:47.079Z,1009.08
2017-08-09T04:49:56.037Z,1009.11
2017-08-09T04:51:04.998Z,1009.2
2017-08-09T04:52:13.968Z,1009.19
2017-08-09T04:53:22.933Z,1009.24
2017-08-09T04:54:31.917Z,1009.23
2017-08-09T04:55:40.872Z,1009.22
2017-08-09T04:56:49.824Z,1009.22
2017-08-09T04:57:58.787Z,1009.2
2017-08-09T04:59:07.746Z,1009.18
2017-08-09T05:00:16.702Z,1009.18
2017-08-09T05:01:25.664Z,1009.21
2017-08-09T05:02:34.627Z,1009.22
2017-08-09T05:03:43.593Z,1009.27
2017-08-09T05:04:52.560Z,1009.35
2017-08-09T05:06:01.516Z,1009.35
2017-08-09T05:07:10.465Z,1009.37
2017-08-09T05:08:19.427Z,1009.35
2017-08-09T05:09:28.388Z,1009.34
2017-08-09T05:10:37.348Z,1009.29
2017-08-09T05:11:46.321Z,1009.32
2017-08-09T05:12:55.272Z,1009.33
2017-08-09T05:14:04.239Z,1009.31
2017-08-09T05:15:13.198Z,1009.39
2017-08-09T05:16:22.151Z,1009.38
2017-08-09T05:17:31.117Z,1009.41
2017-08-09T05:18:40.069Z,1009.48
2017-08-09T05:19:49.027Z,1009.47
2017-08-09T05:20:57.984Z,1009.5
2017-08-09T05:22:06.942Z,1009.53
2017-08-09T05:23:15.906Z,1009.51
2017-08-09T05:24:24.875Z,1009.53
2017-08-09T05:25:33.838Z,1009.53
2017-08-09T05:26:42.806Z,1009.53
2017-08-09T05:27:51.773Z,1009.54
2017-08-09T05:29:00.755Z,1009.56
2017-08-09T05:30:09.711Z,1009.55
2017-08-09T05:31:18.672Z,1009.53
2017-08-09T05:32:27.637Z,1009.55
2017-08-09T05:33:36.600Z,1009.53
2017-08-09T05:34:45.560Z,1009.49
2017-08-09T05:35:54.526Z,1009.53
2017-08-09T05:37:03.820Z,1009.52
2017-08-09T05:38:12.777Z,1009.53
2017-08-09T05:39:21.741Z,1009.51
2017-08-09T05:40:30.701Z,1009.5
2017-08-09T05:41:39.666Z,1009.49
2017-08-09T05:42:48.617Z,1009.49
2017-08-09T05:43:57.584Z,1009.58
2017-08-09T05:45:06.546Z,1009.62
2017-08-09T05:46:15.508Z,1009.7
2017-08-09T05:47:24.470Z,1009.74
2017-08-09T05:48:33.427Z,1009.73
2017-08-09T05:49:42.380Z,1009.74
2017-08-09T05:50:51.358Z,1009.72
2017-08-09T05:52:00.644Z,1009.77
2017-08-09T05:53:09.614Z,1009.8
2017-08-09T05:54:18.568Z,1009.84
2017-08-09T05:55:27.521Z,1009.84
2017-08-09T05:56:36.478Z,1009.77
2017-08-09T05:57:45.435Z,1009.72
2017-08-09T05:58:54.399Z,1009.7
2017-08-09T06:00:03.353Z,1009.68
2017-08-09T06:01:12.320Z,1009.59
2017-08-09T06:02:21.286Z,1009.62
2017-08-09T06:03:30.238Z,1009.64
2017-08-09T06:04:39.209Z,1009.71
2017-08-09T06:05:48.162Z,1009.73
2017-08-09T06:06:57.116Z,1009.74
2017-08-09T06:08:06.074Z,1009.75
2017-08-09T06:09:15.036Z,1009.76
2017-08-09T06:10:23.995Z,1009.87
2017-08-09T06:11:32.956Z,1009.88
2017-08-09T06:12:41.914Z,1009.94
2017-08-09T06:13:50.871Z,1009.99
2017-08-09T06:14:59.834Z,1009.94
2017-08-09T06:16:09.444Z,1009.95
2017-08-09T06:17:18.424Z,1009.99
2017-08-09T06:18:27.385Z,1010
2017-08-09T06:19:36.340Z,1009.99
2017-08-09T06:20:45.293Z,1009.97
2017-08-09T06:21:54.248Z,1009.93
2017-08-09T06:23:03.217Z,1009.94
2017-08-09T06:24:12.170Z,1009.99
2017-08-09T06:25:21.130Z,1009.97
2017-08-09T06:26:30.095Z,1010
2017-08-09T06:27:39.060Z,1010.02
2017-08-09T06:28:48.020Z,1010.07
2017-08-09T06:29:56.977Z,1010.09
2017-08-09T06:31:05.939Z,1010.15
2017-08-09T06:32:14.913Z,1010.14
2017-08-09T06:33:24.206Z,1010.11
2017-08-09T06:34:33.180Z,1010.12
2017-08-09T06:35:42.143Z,1010.12
2017-08-09T06:36:51.156Z,1010.13
2017-08-09T06:38:00.115Z,1010.12
2017-08-09T06:39:09.073Z,1010.17
2017-08-09T06:40:18.361Z,1010.21
2017-08-09T06:41:27.333Z,1010.18
2017-08-09T06:42:36.308Z,1010.19
2017-08-09T06:43:46.034Z,1010.14
2017-08-09T06:44:55.342Z,1010.13
2017-08-09T06:46:04.346Z,1010.18
2017-08-09T06:47:13.390Z,1010.22
2017-08-09T06:48:23.388Z,1010.27
2017-08-09T06:49:33.340Z,1010.29
2017-08-09T06:50:42.407Z,1010.34
2017-08-09T06:51:51.402Z,1010.35
2017-08-09T06:53:00.363Z,1010.34
2017-08-09T06:54:09.390Z,1010.41
2017-08-09T06:55:18.357Z,1010.43
2017-08-09T06:56:27.335Z,1010.43
2017-08-09T06:57:36.537Z,1010.46
2017-08-09T06:58:45.509Z,1010.52
2017-08-09T06:59:54.621Z,1010.53
2017-08-09T07:01:03.843Z,1010.6
2017-08-09T07:02:12.803Z,1010.6
2017-08-09T07:03:22.118Z,1010.57
2017-08-09T07:04:31.111Z,1010.58
2017-08-09T07:05:40.081Z,1010.6
2017-08-09T07:06:49.041Z,1010.63
2017-08-09T07:07:58.003Z,1010.62
2017-08-09T07:09:06.965Z,1010.62
2017-08-09T07:10:15.929Z,1010.64
2017-08-09T07:11:24.887Z,1010.68
2017-08-09T07:12:33.848Z,1010.69
2017-08-09T07:13:42.814Z,1010.72
2017-08-09T07:14:51.777Z,1010.76
2017-08-09T07:16:00.741Z,1010.76
2017-08-09T07:17:09.702Z,1010.71
2017-08-09T07:18:18.665Z,1010.69
2017-08-09T07:19:27.632Z,1010.74
2017-08-09T07:20:36.594Z,1010.75
2017-08-09T07:21:45.629Z,1010.76
2017-08-09T07:22:54.809Z,1010.79
2017-08-09T07:24:04.024Z,1010.77
2017-08-09T07:25:13.076Z,1010.8
2017-08-09T07:26:22.032Z,1010.8
2017-08-09T07:27:31.000Z,1010.84
2017-08-09T07:28:39.955Z,1010.85
2017-08-09T07:29:48.909Z,1010.82
2017-08-09T07:30:57.869Z,1010.79
2017-08-09T07:32:06.831Z,1010.82
2017-08-09T07:33:15.811Z,1010.82
2017-08-09T07:34:24.904Z,1010.81
2017-08-09T07:35:33.861Z,1010.81
2017-08-09T07:36:43.022Z,1010.77
2017-08-09T07:37:52.875Z,1010.79
2017-08-09T07:39:01.841Z,1010.79
2017-08-09T07:40:10.882Z,1010.74
2017-08-09T07:41:19.913Z,1010.69
2017-08-09T07:42:28.998Z,1010.64
2017-08-09T07:43:38.091Z,1010.63
2017-08-09T07:44:47.156Z,1010.64
2017-08-09T07:45:56.124Z,1010.67
2017-08-09T07:47:05.075Z,1010.7
2017-08-09T07:48:14.122Z,1010.75
2017-08-09T07:49:23.222Z,1010.73
2017-08-09T07:50:32.266Z,1010.75
2017-08-09T07:51:41.343Z,1010.84
2017-08-09T07:52:50.456Z,1010.84
2017-08-09T07:53:59.640Z,1010.86
2017-08-09T07:55:08.685Z,1010.89
2017-08-09T07:56:17.799Z,1010.91
2017-08-09T07:57:26.799Z,1010.98
2017-08-09T07:58:35.943Z,1010.98
2017-08-09T07:59:45.302Z,1011.01
2017-08-09T08:00:54.265Z,1011
2017-08-09T08:02:03.233Z,1011.07
2017-08-09T08:03:12.266Z,1011.06
2017-08-09T08:04:21.349Z,1011.08
2017-08-09T08:05:30.343Z,1011.08
2017-08-09T08:06:39.416Z,1011.12
2017-08-09T08:07:48.407Z,1011.13
2017-08-09T08:08:57.377Z,1011.18
2017-08-09T08:10:06.506Z,1011.23
2017-08-09T08:11:15.491Z,1011.29
2017-08-09T08:12:24.539Z,1011.31
2017-08-09T08:13:33.627Z,1011.28
2017-08-09T08:14:42.623Z,1011.3
2017-08-09T08:15:51.591Z,1011.32
2017-08-09T08:17:00.547Z,1011.31
2017-08-09T08:18:09.613Z,1011.29
2017-08-09T08:19:18.581Z,1011.32
2017-08-09T08:20:27.810Z,1011.35
2017-08-09T08:21:36.865Z,1011.38
2017-08-09T08:22:45.883Z,1011.43
2017-08-09T08:23:54.906Z,1011.45
2017-08-09T08:25:03.859Z,1011.43
2017-08-09T08:26:12.831Z,1011.46
2017-08-09T08:27:21.921Z,1011.48
2017-08-09T08:28:30.891Z,1011.45
2017-08-09T08:29:39.956Z,1011.45
2017-08-09T08:30:48.941Z,1011.47
2017-08-09T08:31:57.902Z,1011.43
2017-08-09T08:33:07.101Z,1011.47
2017-08-09T08:34:16.106Z,1011.51
2017-08-09T08:35:25.069Z,1011.55
2017-08-09T08:36:34.032Z,1011.53
2017-08-09T08:37:43.006Z,1011.51
2017-08-09T08:38:51.976Z,1011.54
2017-08-09T08:40:00.977Z,1011.53
2017-08-09T08:41:10.094Z,1011.48
2017-08-09T08:42:19.169Z,1011.48
2017-08-09T08:43:28.397Z,1011.5
2017-08-09T08:44:37.355Z,1011.52
2017-08-09T08:45:46.333Z,1011.53
2017-08-09T08:46:55.430Z,1011.53
2017-08-09T08:48:04.381Z,1011.54
2017-08-09T08:49:13.597Z,1011.56
2017-08-09T08:50:22.555Z,1011.55
2017-08-09T08:51:31.514Z,1011.57
2017-08-09T08:52:40.504Z,1011.62
2017-08-09T08:53:49.719Z,1011.6
2017-08-09T08:54:59.056Z,1011.6
2017-08-09T08:56:08.788Z,1011.62
2017-08-09T08:57:17.813Z,1011.61
2017-08-09T08:58:26.879Z,1011.61
2017-08-09T08:59:35.872Z,1011.67
2017-08-09T09:00:44.984Z,1011.67
2017-08-09T09:01:53.972Z,1011.65
2017-08-09T09:03:02.948Z,1011.59
2017-08-09T09:04:11.981Z,1011.63
2017-08-09T09:05:21.033Z,1011.65
2017-08-09T09:06:30.084Z,1011.62
2017-08-09T09:07:39.100Z,1011.59
2017-08-09T09:08:48.090Z,1011.6
2017-08-09T09:09:57.450Z,1011.66
2017-08-09T09:11:06.504Z,1011.69
2017-08-09T09:12:15.519Z,1011.65
2017-08-09T09:13:24.612Z,1011.64
2017-08-09T09:14:33.642Z,1011.62
2017-08-09T09:15:42.635Z,1011.59
2017-08-09T09:16:51.617Z,1011.54
2017-08-09T09:18:00.606Z,1011.61
2017-08-09T09:19:09.591Z,1011.58
2017-08-09T09:20:18.600Z,1011.58
2017-08-09T09:21:27.591Z,1011.62
2017-08-09T09:22:36.572Z,1011.64
2017-08-09T09:23:45.561Z,1011.58
2017-08-09T09:24:54.544Z,1011.56
2017-08-09T09:26:03.523Z,1011.57
2017-08-09T09:27:12.504Z,1011.56
2017-08-09T09:28:21.491Z,1011.58
2017-08-09T09:29:30.473Z,1011.6
2017-08-09T09:30:39.457Z,1011.62
2017-08-09T09:31:48.452Z,1011.62
2017-08-09T09:32:57.436Z,1011.66
2017-08-09T09:34:06.751Z,1011.68
2017-08-09T09:35:15.744Z,1011.69
2017-08-09T09:36:24.736Z,1011.67
2017-08-09T09:37:33.730Z,1011.68
2017-08-09T09:38:42.715Z,1011.67
2017-08-09T09:39:51.710Z,1011.71
2017-08-09T09:41:00.696Z,1011.72
2017-08-09T09:42:09.683Z,1011.75
2017-08-09T09:43:18.690Z,1011.74
2017-08-09T09:44:27.687Z,1011.7
2017-08-09T09:45:36.676Z,1011.7
2017-08-09T09:46:45.669Z,1011.71
2017-08-09T09:47:54.650Z,1011.72
2017-08-09T09:49:03.636Z,1011.71
2017-08-09T09:50:12.634Z,1011.75
2017-08-09T09:51:21.943Z,1011.71
2017-08-09T09:52:30.934Z,1011.73
2017-08-09T09:53:39.933Z,1011.72
2017-08-09T09:54:48.916Z,1011.7
2017-08-09T09:55:58.225Z,1011.7
2017-08-09T09:57:07.217Z,1011.71
2017-08-09T09:58:16.229Z,1011.71
2017-08-09T09:59:25.213Z,1011.73
2017-08-09T10:00:34.514Z,1011.71
2017-08-09T10:01:43.495Z,1011.65
2017-08-09T10:02:52.481Z,1011.62
2017-08-09T10:04:01.458Z,1011.73
2017-08-09T10:05:10.413Z,1011.74
2017-08-09T10:06:19.376Z,1011.75
2017-08-09T10:07:28.341Z,1011.7
2017-08-09T10:08:37.302Z,1011.69
2017-08-09T10:09:46.268Z,1011.71
2017-08-09T10:10:55.233Z,1011.68
2017-08-09T10:12:04.198Z,1011.67
2017-08-09T10:13:13.162Z,1011.7
2017-08-09T10:14:22.177Z,1011.68
2017-08-09T10:15:31.136Z,1011.67
2017-08-09T10:16:40.104Z,1011.71
2017-08-09T10:17:49.073Z,1011.69
2017-08-09T10:18:58.059Z,1011.65
2017-08-09T10:20:07.054Z,1011.68
2017-08-09T10:21:16.038Z,1011.69
2017-08-09T10:22:25.022Z,1011.72
2017-08-09T10:23:34.010Z,1011.72
2017-08-09T10:24:42.989Z,1011.69
2017-08-09T10:25:51.978Z,1011.68
2017-08-09T10:27:00.960Z,1011.69
2017-08-09T10:28:09.925Z,1011.72
2017-08-09T10:29:18.887Z,1011.72
2017-08-09T10:30:27.837Z,1011.68
2017-08-09T10:31:36.806Z,1011.63
2017-08-09T10:32:45.770Z,1011.63
2017-08-09T10:33:55.048Z,1011.7
2017-08-09T10:35:04.011Z,1011.57
2017-08-09T10:36:13.010Z,1011.59
2017-08-09T10:37:21.972Z,1011.65
2017-08-09T10:38:30.936Z,1011.65
2017-08-09T10:39:39.918Z,1011.67
2017-08-09T10:40:48.877Z,1011.62
2017-08-09T10:41:57.882Z,1011.58
2017-08-09T10:43:08.035Z,1011.64
2017-08-09T10:44:18.333Z,1011.64
2017-08-09T10:45:31.736Z,1011.68
2017-08-09T10:46:41.610Z,1011.63
2017-08-09T10:47:50.582Z,1011.69
2017-08-09T10:48:59.637Z,1011.63
2017-08-09T10:50:09.090Z,1011.6
2017-08-09T10:51:18.336Z,1011.61
2017-08-09T10:52:27.441Z,1011.64
2017-08-09T10:53:36.538Z,1011.61
2017-08-09T10:54:45.687Z,1011.66
2017-08-09T10:55:54.654Z,1011.72
2017-08-09T10:57:03.824Z,1011.68
2017-08-09T10:58:13.224Z,1011.67
2017-08-09T10:59:22.288Z,1011.62
2017-08-09T11:00:31.465Z,1011.67
2017-08-09T11:01:40.547Z,1011.63
2017-08-09T11:02:49.778Z,1011.67
2017-08-09T11:03:58.868Z,1011.63
2017-08-09T11:05:08.009Z,1011.66
2017-08-09T11:06:17.181Z,1011.69
2017-08-09T11:07:26.156Z,1011.75
2017-08-09T11:08:35.797Z,1011.66
2017-08-09T11:09:45.068Z,1011.68
2017-08-09T11:10:54.060Z,1011.67
2017-08-09T11:12:03.128Z,1011.63
2017-08-09T11:13:12.152Z,1011.64
2017-08-09T11:14:21.180Z,1011.69
2017-08-09T11:15:30.265Z,1011.68
2017-08-09T11:16:39.225Z,1011.7
2017-08-09T11:17:48.191Z,1011.63
2017-08-09T11:18:57.171Z,1011.63
2017-08-09T11:20:06.128Z,1011.63
2017-08-09T11:21:15.150Z,1011.65
2017-08-09T11:22:24.770Z,1011.66
2017-08-09T11:23:33.892Z,1011.64
2017-08-09T11:24:43.267Z,1011.67
2017-08-09T11:25:52.422Z,1011.71
2017-08-09T11:27:01.437Z,1011.62
2017-08-09T11:28:10.513Z,1011.62
2017-08-09T11:29:19.836Z,1011.63
2017-08-09T11:30:28.791Z,1011.63
2017-08-09T11:31:37.755Z,1011.63
2017-08-09T11:32:46.800Z,1011.64
2017-08-09T11:33:55.867Z,1011.58
2017-08-09T11:35:04.917Z,1011.64
2017-08-09T11:36:13.889Z,1011.61
2017-08-09T11:37:22.883Z,1011.62
2017-08-09T11:38:31.896Z,1011.68
2017-08-09T11:39:40.869Z,1011.7
2017-08-09T11:40:49.836Z,1011.67
2017-08-09T11:41:58.810Z,1011.63
2017-08-09T11:43:07.844Z,1011.63
2017-08-09T11:44:16.878Z,1011.53
2017-08-09T11:45:25.882Z,1011.62
2017-08-09T11:46:34.966Z,1011.65
2017-08-09T11:47:43.951Z,1011.61
2017-08-09T11:48:52.948Z,1011.61
2017-08-09T11:50:01.949Z,1011.61
2017-08-09T11:51:10.905Z,1011.59
2017-08-09T11:52:19.881Z,1011.61
2017-08-09T11:53:28.921Z,1011.63
2017-08-09T11:54:37.910Z,1011.62
2017-08-09T11:55:46.905Z,1011.59
2017-08-09T11:56:55.875Z,1011.6
2017-08-09T11:58:04.834Z,1011.54
2017-08-09T11:59:13.891Z,1011.6
2017-08-09T12:00:22.893Z,1011.51
2017-08-09T12:01:31.960Z,1011.51
2017-08-09T12:02:40.952Z,1011.53
2017-08-09T12:03:49.934Z,1011.43
2017-08-09T12:04:59.321Z,1011.45
2017-08-09T12:06:08.390Z,1011.45
2017-08-09T12:07:17.676Z,1011.49
2017-08-09T12:08:26.646Z,1011.48
2017-08-09T12:09:35.946Z,1011.48
2017-08-09T12:10:44.917Z,1011.43
2017-08-09T12:11:53.876Z,1011.48
2017-08-09T12:13:02.843Z,1011.4
2017-08-09T12:14:11.822Z,1011.37
2017-08-09T12:15:20.959Z,1011.43
2017-08-09T12:16:29.932Z,1011.44
2017-08-09T12:17:38.991Z,1011.41
2017-08-09T12:18:47.974Z,1011.52
2017-08-09T12:19:57.061Z,1011.41
2017-08-09T12:21:06.200Z,1011.34
2017-08-09T12:22:15.347Z,1011.38
2017-08-09T12:23:24.403Z,1011.37
2017-08-09T12:24:33.525Z,1011.39
2017-08-09T12:25:42.605Z,1011.42
2017-08-09T12:26:51.649Z,1011.3
2017-08-09T12:28:00.765Z,1011.34
2017-08-09T12:29:09.808Z,1011.29
2017-08-09T12:30:18.828Z,1011.39
2017-08-09T12:31:27.864Z,1011.38
2017-08-09T12:32:36.904Z,1011.35
2017-08-09T12:33:45.868Z,1011.27
2017-08-09T12:34:54.835Z,1011.4
2017-08-09T12:36:04.044Z,1011.33
2017-08-09T12:37:13.422Z,1011.34
2017-08-09T12:38:22.398Z,1011.31
2017-08-09T12:39:31.365Z,1011.28
2017-08-09T12:40:40.322Z,1011.27
2017-08-09T12:41:49.291Z,1011.27
2017-08-09T12:42:58.267Z,1011.25
2017-08-09T12:44:07.232Z,1011.32
2017-08-09T12:45:16.537Z,1011.24
2017-08-09T12:46:25.512Z,1011.17
2017-08-09T12:47:34.484Z,1011.22
2017-08-09T12:48:43.444Z,1011.25
2017-08-09T12:49:52.418Z,1011.26
2017-08-09T12:51:01.370Z,1011.35
2017-08-09T12:52:10.337Z,1011.23
2017-08-09T12:53:19.298Z,1011.23
2017-08-09T12:54:28.265Z,1011.26
2017-08-09T12:55:37.232Z,1011.27
2017-08-09T12:56:46.198Z,1011.22
2017-08-09T12:57:55.162Z,1011.29
2017-08-09T12:59:04.123Z,1011.29
2017-08-09T13:00:13.079Z,1011.28
2017-08-09T13:01:22.045Z,1011.27
2017-08-09T13:02:31.011Z,1011.27
2017-08-09T13:03:39.987Z,1011.34
2017-08-09T13:04:48.962Z,1011.31
2017-08-09T13:05:57.922Z,1011.39
2017-08-09T13:07:06.889Z,1011.35
2017-08-09T13:08:15.853Z,1011.4
2017-08-09T13:09:24.825Z,1011.36
2017-08-09T13:10:33.796Z,1011.42
2017-08-09T13:11:42.809Z,1011.36
2017-08-09T13:12:52.034Z,1011.33
2017-08-09T13:14:01.201Z,1011.3
2017-08-09T13:15:10.275Z,1011.34
2017-08-09T13:16:19.382Z,1011.34
2017-08-09T13:17:28.418Z,1011.31
2017-08-09T13:18:37.756Z,1011.28
2017-08-09T13:19:46.783Z,1011.34
2017-08-09T13:20:55.886Z,1011.28
2017-08-09T13:22:04.933Z,1011.26
2017-08-09T13:23:13.995Z,1011.25
2017-08-09T13:24:23.102Z,1011.25
2017-08-09T13:25:32.097Z,1011.23
2017-08-09T13:26:41.177Z,1011.21
2017-08-09T13:27:50.202Z,1011.33
2017-08-09T13:28:59.222Z,1011.23
2017-08-09T13:30:08.671Z,1011.24
2017-08-09T13:31:17.876Z,1011.12
2017-08-09T13:32:27.091Z,1011.1
2017-08-09T13:33:36.228Z,1011.1
2017-08-09T13:34:45.269Z,1011.13
2017-08-09T13:35:54.466Z,1011.08
2017-08-09T13:37:03.506Z,1011.04
2017-08-09T13:38:12.469Z,1011.07
2017-08-09T13:39:21.467Z,1011.1
2017-08-09T13:40:30.530Z,1011.09
2017-08-09T13:41:39.576Z,1011.14
2017-08-09T13:42:48.611Z,1011.14
2017-08-09T13:43:57.643Z,1011.09
2017-08-09T13:45:06.655Z,1011.08
2017-08-09T13:46:15.712Z,1011.04
2017-08-09T13:47:24.785Z,1011.12
2017-08-09T13:48:33.946Z,1011.11
2017-08-09T13:49:43.038Z,1011.08
2017-08-09T13:50:52.025Z,1011.04
2017-08-09T13:52:01.076Z,1011.02
2017-08-09T13:53:10.161Z,1011.01
2017-08-09T13:54:19.161Z,1011.03
2017-08-09T13:55:28.562Z,1010.96
2017-08-09T13:56:37.710Z,1011.03
2017-08-09T13:57:46.704Z,1011.01